sensor_id;sensor_type;location;lat;lon;timestamp;P1;durP1;ratioP1;P2;durP2;ratioP2
52696;SDS011;38593;52.670;6.286;2022-07-11T00:02:12;2.63;;;1.45;;
52696;SDS011;38593;52.670;6.286;2022-07-11T00:04:39;6.32;;;1.65;;
52696;SDS011;38593;52.670;6.286;2022-07-11T00:07:05;3.33;;;1.65;;
52696;SDS011;38593;52.670;6.286;2022-07-11T00:09:31;4.68;;;1.85;;
52696;SDS011;38593;52.670;6.286;2022-07-11T00:11:57;2.42;;;1.70;;
52696;SDS011;38593;52.670;6.286;2022-07-11T00:16:50;4.53;;;1.50;;
52696;SDS011;38593;52.670;6.286;2022-07-11T00:19:16;2.75;;;1.60;;
52696;SDS011;38593;52.670;6.286;2022-07-11T00:21:42;4.03;;;1.60;;
52696;SDS011;38593;52.670;6.286;2022-07-11T00:24:07;3.60;;;1.67;;
52696;SDS011;38593;52.670;6.286;2022-07-11T00:26:34;5.05;;;2.00;;
52696;SDS011;38593;52.670;6.286;2022-07-11T00:31:25;2.22;;;1.30;;
52696;SDS011;38593;52.670;6.286;2022-07-11T00:33:51;3.33;;;1.50;;
52696;SDS011;38593;52.670;6.286;2022-07-11T00:36:17;4.90;;;1.27;;
52696;SDS011;38593;52.670;6.286;2022-07-11T00:38:42;3.87;;;1.80;;
52696;SDS011;38593;52.670;6.286;2022-07-11T00:41:08;3.67;;;1.53;;
52696;SDS011;38593;52.670;6.286;2022-07-11T00:43:34;4.67;;;1.80;;
52696;SDS011;38593;52.670;6.286;2022-07-11T00:46:02;2.42;;;1.60;;
52696;SDS011;38593;52.670;6.286;2022-07-11T00:48:32;3.13;;;1.40;;
52696;SDS011;38593;52.670;6.286;2022-07-11T00:50:58;1.92;;;1.33;;
52696;SDS011;38593;52.670;6.286;2022-07-11T00:53:26;2.30;;;1.63;;
52696;SDS011;38593;52.670;6.286;2022-07-11T00:55:52;3.80;;;1.67;;
52696;SDS011;38593;52.670;6.286;2022-07-11T00:58:19;2.72;;;1.33;;
52696;SDS011;38593;52.670;6.286;2022-07-11T01:00:45;2.42;;;1.70;;
52696;SDS011;38593;52.670;6.286;2022-07-11T01:03:11;2.07;;;1.40;;
52696;SDS011;38593;52.670;6.286;2022-07-11T01:05:37;3.00;;;1.58;;
52696;SDS011;38593;52.670;6.286;2022-07-11T01:08:03;4.63;;;2.13;;
52696;SDS011;38593;52.670;6.286;2022-07-11T01:10:30;3.13;;;1.40;;
52696;SDS011;38593;52.670;6.286;2022-07-11T01:12:56;3.00;;;1.55;;
52696;SDS011;38593;52.670;6.286;2022-07-11T01:15:22;3.38;;;1.73;;
52696;SDS011;38593;52.670;6.286;2022-07-11T01:17:49;2.63;;;1.35;;
52696;SDS011;38593;52.670;6.286;2022-07-11T01:20:14;2.43;;;1.47;;
52696;SDS011;38593;52.670;6.286;2022-07-11T01:22:41;3.60;;;1.60;;
52696;SDS011;38593;52.670;6.286;2022-07-11T01:25:14;5.55;;;1.60;;
52696;SDS011;38593;52.670;6.286;2022-07-11T01:28:04;3.03;;;1.40;;
52696;SDS011;38593;52.670;6.286;2022-07-11T01:30:33;2.30;;;1.40;;
52696;SDS011;38593;52.670;6.286;2022-07-11T01:32:59;5.47;;;1.70;;
52696;SDS011;38593;52.670;6.286;2022-07-11T01:35:26;4.53;;;1.90;;
52696;SDS011;38593;52.670;6.286;2022-07-11T01:37:53;3.70;;;1.70;;
52696;SDS011;38593;52.670;6.286;2022-07-11T01:40:19;5.63;;;1.67;;
52696;SDS011;38593;52.670;6.286;2022-07-11T01:42:45;3.33;;;1.40;;
52696;SDS011;38593;52.670;6.286;2022-07-11T01:45:12;2.55;;;1.40;;
52696;SDS011;38593;52.670;6.286;2022-07-11T01:47:39;4.28;;;1.50;;
52696;SDS011;38593;52.670;6.286;2022-07-11T01:50:05;3.83;;;1.70;;
52696;SDS011;38593;52.670;6.286;2022-07-11T01:52:32;1.90;;;1.45;;
52696;SDS011;38593;52.670;6.286;2022-07-11T01:54:57;4.10;;;1.60;;
52696;SDS011;38593;52.670;6.286;2022-07-11T01:57:23;4.03;;;1.67;;
52696;SDS011;38593;52.670;6.286;2022-07-11T01:59:49;4.10;;;1.97;;
52696;SDS011;38593;52.670;6.286;2022-07-11T02:02:14;2.03;;;1.40;;
52696;SDS011;38593;52.670;6.286;2022-07-11T02:04:41;1.95;;;1.30;;
52696;SDS011;38593;52.670;6.286;2022-07-11T02:07:07;2.63;;;1.40;;
52696;SDS011;38593;52.670;6.286;2022-07-11T02:09:33;3.50;;;1.50;;
52696;SDS011;38593;52.670;6.286;2022-07-11T02:11:58;3.17;;;1.85;;
52696;SDS011;38593;52.670;6.286;2022-07-11T02:14:24;5.10;;;1.70;;
52696;SDS011;38593;52.670;6.286;2022-07-11T02:16:50;3.13;;;1.60;;
52696;SDS011;38593;52.670;6.286;2022-07-11T02:19:15;3.90;;;1.50;;
52696;SDS011;38593;52.670;6.286;2022-07-11T02:21:42;4.43;;;1.65;;
52696;SDS011;38593;52.670;6.286;2022-07-11T02:24:07;4.32;;;1.65;;
52696;SDS011;38593;52.670;6.286;2022-07-11T02:26:33;3.65;;;1.70;;
52696;SDS011;38593;52.670;6.286;2022-07-11T02:28:59;2.08;;;1.58;;
52696;SDS011;38593;52.670;6.286;2022-07-11T02:31:25;2.33;;;1.80;;
52696;SDS011;38593;52.670;6.286;2022-07-11T02:33:50;3.60;;;1.77;;
52696;SDS011;38593;52.670;6.286;2022-07-11T02:36:16;2.00;;;1.70;;
52696;SDS011;38593;52.670;6.286;2022-07-11T02:38:42;2.30;;;1.60;;
52696;SDS011;38593;52.670;6.286;2022-07-11T02:41:08;2.60;;;1.80;;
52696;SDS011;38593;52.670;6.286;2022-07-11T02:43:34;3.30;;;2.20;;
52696;SDS011;38593;52.670;6.286;2022-07-11T02:46:00;3.77;;;1.93;;
52696;SDS011;38593;52.670;6.286;2022-07-11T02:48:26;4.13;;;2.25;;
52696;SDS011;38593;52.670;6.286;2022-07-11T02:50:52;3.83;;;1.93;;
52696;SDS011;38593;52.670;6.286;2022-07-11T02:53:18;4.75;;;2.10;;
52696;SDS011;38593;52.670;6.286;2022-07-11T02:55:43;4.10;;;2.30;;
52696;SDS011;38593;52.670;6.286;2022-07-11T02:58:10;4.97;;;1.80;;
52696;SDS011;38593;52.670;6.286;2022-07-11T03:00:36;4.23;;;2.10;;
52696;SDS011;38593;52.670;6.286;2022-07-11T03:03:02;3.55;;;2.20;;
52696;SDS011;38593;52.670;6.286;2022-07-11T03:05:28;5.40;;;2.20;;
52696;SDS011;38593;52.670;6.286;2022-07-11T03:07:54;4.72;;;1.88;;
52696;SDS011;38593;52.670;6.286;2022-07-11T03:10:20;4.07;;;2.50;;
52696;SDS011;38593;52.670;6.286;2022-07-11T03:12:48;6.57;;;2.13;;
52696;SDS011;38593;52.670;6.286;2022-07-11T03:15:14;4.30;;;2.20;;
52696;SDS011;38593;52.670;6.286;2022-07-11T03:17:40;6.47;;;2.27;;
52696;SDS011;38593;52.670;6.286;2022-07-11T03:20:05;4.17;;;2.03;;
52696;SDS011;38593;52.670;6.286;2022-07-11T03:22:32;3.03;;;2.00;;
52696;SDS011;38593;52.670;6.286;2022-07-11T03:24:58;5.23;;;2.00;;
52696;SDS011;38593;52.670;6.286;2022-07-11T03:27:25;8.98;;;2.30;;
52696;SDS011;38593;52.670;6.286;2022-07-11T03:29:51;3.90;;;2.20;;
52696;SDS011;38593;52.670;6.286;2022-07-11T03:32:16;2.53;;;1.83;;
52696;SDS011;38593;52.670;6.286;2022-07-11T03:34:45;7.40;;;3.42;;
52696;SDS011;38593;52.670;6.286;2022-07-11T03:37:31;3.63;;;2.13;;
52696;SDS011;38593;52.670;6.286;2022-07-11T03:39:57;6.00;;;2.40;;
52696;SDS011;38593;52.670;6.286;2022-07-11T03:42:23;5.63;;;2.40;;
52696;SDS011;38593;52.670;6.286;2022-07-11T03:44:49;6.95;;;2.55;;
52696;SDS011;38593;52.670;6.286;2022-07-11T03:49:42;3.08;;;2.05;;
52696;SDS011;38593;52.670;6.286;2022-07-11T03:52:08;2.72;;;2.05;;
52696;SDS011;38593;52.670;6.286;2022-07-11T03:54:34;4.70;;;2.47;;
52696;SDS011;38593;52.670;6.286;2022-07-11T03:56:59;4.93;;;2.27;;
52696;SDS011;38593;52.670;6.286;2022-07-11T03:59:26;4.35;;;2.30;;
52696;SDS011;38593;52.670;6.286;2022-07-11T04:01:51;3.73;;;2.20;;
52696;SDS011;38593;52.670;6.286;2022-07-11T04:04:17;2.77;;;1.90;;
52696;SDS011;38593;52.670;6.286;2022-07-11T04:06:43;3.50;;;2.10;;
52696;SDS011;38593;52.670;6.286;2022-07-11T04:09:09;4.15;;;3.08;;
52696;SDS011;38593;52.670;6.286;2022-07-11T04:11:35;7.63;;;2.40;;
52696;SDS011;38593;52.670;6.286;2022-07-11T04:14:01;6.88;;;2.53;;
52696;SDS011;38593;52.670;6.286;2022-07-11T04:16:26;6.97;;;2.23;;
52696;SDS011;38593;52.670;6.286;2022-07-11T04:18:52;4.33;;;2.33;;
52696;SDS011;38593;52.670;6.286;2022-07-11T04:21:18;2.92;;;2.22;;
52696;SDS011;38593;52.670;6.286;2022-07-11T04:23:43;4.07;;;2.30;;
52696;SDS011;38593;52.670;6.286;2022-07-11T04:26:09;5.90;;;2.75;;
52696;SDS011;38593;52.670;6.286;2022-07-11T04:28:35;5.83;;;2.60;;
52696;SDS011;38593;52.670;6.286;2022-07-11T04:31:01;5.50;;;2.47;;
52696;SDS011;38593;52.670;6.286;2022-07-11T04:33:27;4.28;;;2.60;;
52696;SDS011;38593;52.670;6.286;2022-07-11T04:35:54;4.95;;;2.20;;
52696;SDS011;38593;52.670;6.286;2022-07-11T04:38:20;4.68;;;2.38;;
52696;SDS011;38593;52.670;6.286;2022-07-11T04:40:49;4.43;;;2.67;;
52696;SDS011;38593;52.670;6.286;2022-07-11T04:45:41;3.20;;;2.03;;
52696;SDS011;38593;52.670;6.286;2022-07-11T04:48:06;3.17;;;1.80;;
52696;SDS011;38593;52.670;6.286;2022-07-11T04:50:32;3.30;;;1.80;;
52696;SDS011;38593;52.670;6.286;2022-07-11T04:52:58;3.30;;;2.20;;
52696;SDS011;38593;52.670;6.286;2022-07-11T04:55:23;3.27;;;2.10;;
52696;SDS011;38593;52.670;6.286;2022-07-11T04:57:49;2.70;;;2.10;;
52696;SDS011;38593;52.670;6.286;2022-07-11T05:00:15;2.50;;;1.85;;
52696;SDS011;38593;52.670;6.286;2022-07-11T05:02:41;4.85;;;1.70;;
52696;SDS011;38593;52.670;6.286;2022-07-11T05:05:07;1.85;;;1.55;;
52696;SDS011;38593;52.670;6.286;2022-07-11T05:07:33;2.60;;;1.48;;
52696;SDS011;38593;52.670;6.286;2022-07-11T05:09:59;2.50;;;1.63;;
52696;SDS011;38593;52.670;6.286;2022-07-11T05:12:24;1.93;;;1.50;;
52696;SDS011;38593;52.670;6.286;2022-07-11T05:14:50;2.53;;;1.87;;
52696;SDS011;38593;52.670;6.286;2022-07-11T05:17:15;2.97;;;1.87;;
52696;SDS011;38593;52.670;6.286;2022-07-11T05:19:41;1.70;;;1.47;;
52696;SDS011;38593;52.670;6.286;2022-07-11T05:22:07;3.38;;;1.38;;
52696;SDS011;38593;52.670;6.286;2022-07-11T05:24:32;3.87;;;1.40;;
52696;SDS011;38593;52.670;6.286;2022-07-11T05:26:59;1.40;;;1.27;;
52696;SDS011;38593;52.670;6.286;2022-07-11T05:29:24;1.77;;;1.40;;
52696;SDS011;38593;52.670;6.286;2022-07-11T05:31:50;2.23;;;1.10;;
52696;SDS011;38593;52.670;6.286;2022-07-11T05:34:18;1.53;;;1.40;;
52696;SDS011;38593;52.670;6.286;2022-07-11T05:36:45;1.52;;;1.40;;
52696;SDS011;38593;52.670;6.286;2022-07-11T05:39:11;1.95;;;1.30;;
52696;SDS011;38593;52.670;6.286;2022-07-11T05:41:37;2.10;;;1.35;;
52696;SDS011;38593;52.670;6.286;2022-07-11T05:44:02;2.63;;;1.67;;
52696;SDS011;38593;52.670;6.286;2022-07-11T05:46:28;1.50;;;1.10;;
52696;SDS011;38593;52.670;6.286;2022-07-11T05:48:54;2.70;;;1.20;;
52696;SDS011;38593;52.670;6.286;2022-07-11T05:51:19;1.20;;;1.00;;
52696;SDS011;38593;52.670;6.286;2022-07-11T05:53:45;1.27;;;1.10;;
52696;SDS011;38593;52.670;6.286;2022-07-11T05:56:10;2.40;;;0.97;;
52696;SDS011;38593;52.670;6.286;2022-07-11T05:58:36;1.55;;;1.38;;
52696;SDS011;38593;52.670;6.286;2022-07-11T06:01:03;2.67;;;1.48;;
52696;SDS011;38593;52.670;6.286;2022-07-11T06:03:28;1.65;;;1.10;;
52696;SDS011;38593;52.670;6.286;2022-07-11T06:05:54;1.50;;;1.02;;
52696;SDS011;38593;52.670;6.286;2022-07-11T06:08:20;1.20;;;0.87;;
52696;SDS011;38593;52.670;6.286;2022-07-11T06:11:05;1.40;;;1.13;;
52696;SDS011;38593;52.670;6.286;2022-07-11T06:13:31;1.03;;;0.70;;
52696;SDS011;38593;52.670;6.286;2022-07-11T06:15:56;1.40;;;0.88;;
52696;SDS011;38593;52.670;6.286;2022-07-11T06:18:22;1.17;;;0.93;;
52696;SDS011;38593;52.670;6.286;2022-07-11T06:20:49;0.70;;;0.70;;
52696;SDS011;38593;52.670;6.286;2022-07-11T06:23:15;2.05;;;0.70;;
52696;SDS011;38593;52.670;6.286;2022-07-11T06:25:40;1.52;;;0.73;;
52696;SDS011;38593;52.670;6.286;2022-07-11T06:28:06;0.88;;;0.70;;
52696;SDS011;38593;52.670;6.286;2022-07-11T06:30:32;0.40;;;0.40;;
52696;SDS011;38593;52.670;6.286;2022-07-11T06:32:58;2.03;;;1.00;;
52696;SDS011;38593;52.670;6.286;2022-07-11T06:35:24;1.00;;;0.90;;
52696;SDS011;38593;52.670;6.286;2022-07-11T06:37:49;1.73;;;0.80;;
52696;SDS011;38593;52.670;6.286;2022-07-11T06:40:15;0.68;;;0.65;;
52696;SDS011;38593;52.670;6.286;2022-07-11T06:42:42;1.27;;;0.60;;
52696;SDS011;38593;52.670;6.286;2022-07-11T06:45:09;2.42;;;0.70;;
52696;SDS011;38593;52.670;6.286;2022-07-11T06:47:35;0.60;;;0.60;;
52696;SDS011;38593;52.670;6.286;2022-07-11T06:50:01;1.45;;;0.70;;
52696;SDS011;38593;52.670;6.286;2022-07-11T06:52:26;0.75;;;0.65;;
52696;SDS011;38593;52.670;6.286;2022-07-11T06:54:52;1.73;;;0.60;;
52696;SDS011;38593;52.670;6.286;2022-07-11T06:57:18;1.40;;;0.70;;
52696;SDS011;38593;52.670;6.286;2022-07-11T06:59:43;0.87;;;0.60;;
52696;SDS011;38593;52.670;6.286;2022-07-11T07:02:09;0.97;;;0.50;;
52696;SDS011;38593;52.670;6.286;2022-07-11T07:04:34;0.50;;;0.50;;
52696;SDS011;38593;52.670;6.286;2022-07-11T07:07:00;0.80;;;0.60;;
52696;SDS011;38593;52.670;6.286;2022-07-11T07:09:27;0.98;;;0.38;;
52696;SDS011;38593;52.670;6.286;2022-07-11T07:11:53;0.98;;;0.47;;
52696;SDS011;38593;52.670;6.286;2022-07-11T07:14:19;0.57;;;0.57;;
52696;SDS011;38593;52.670;6.286;2022-07-11T07:16:44;0.87;;;0.70;;
52696;SDS011;38593;52.670;6.286;2022-07-11T07:19:10;2.27;;;0.63;;
52696;SDS011;38593;52.670;6.286;2022-07-11T07:21:35;0.67;;;0.50;;
52696;SDS011;38593;52.670;6.286;2022-07-11T07:24:01;1.70;;;0.70;;
52696;SDS011;38593;52.670;6.286;2022-07-11T07:26:27;0.50;;;0.40;;
52696;SDS011;38593;52.670;6.286;2022-07-11T07:28:52;4.17;;;3.07;;
52696;SDS011;38593;52.670;6.286;2022-07-11T07:31:18;0.97;;;0.70;;
52696;SDS011;38593;52.670;6.286;2022-07-11T07:33:43;0.60;;;0.60;;
52696;SDS011;38593;52.670;6.286;2022-07-11T07:36:09;1.53;;;0.70;;
52696;SDS011;38593;52.670;6.286;2022-07-11T07:38:35;0.63;;;0.50;;
52696;SDS011;38593;52.670;6.286;2022-07-11T07:41:00;2.30;;;0.50;;
52696;SDS011;38593;52.670;6.286;2022-07-11T07:43:26;1.07;;;0.77;;
52696;SDS011;38593;52.670;6.286;2022-07-11T07:45:51;1.20;;;0.53;;
52696;SDS011;38593;52.670;6.286;2022-07-11T07:48:17;1.53;;;0.60;;
52696;SDS011;38593;52.670;6.286;2022-07-11T07:50:42;1.90;;;0.60;;
52696;SDS011;38593;52.670;6.286;2022-07-11T07:53:08;0.87;;;0.40;;
52696;SDS011;38593;52.670;6.286;2022-07-11T07:55:34;0.50;;;0.50;;
52696;SDS011;38593;52.670;6.286;2022-07-11T07:58:00;0.93;;;0.50;;
52696;SDS011;38593;52.670;6.286;2022-07-11T08:00:26;1.07;;;0.50;;
52696;SDS011;38593;52.670;6.286;2022-07-11T08:03:10;1.48;;;0.60;;
52696;SDS011;38593;52.670;6.286;2022-07-11T08:05:36;0.60;;;0.60;;
52696;SDS011;38593;52.670;6.286;2022-07-11T08:08:02;0.43;;;0.43;;
52696;SDS011;38593;52.670;6.286;2022-07-11T08:10:28;0.85;;;0.60;;
52696;SDS011;38593;52.670;6.286;2022-07-11T08:12:54;0.50;;;0.50;;
52696;SDS011;38593;52.670;6.286;2022-07-11T08:15:20;0.90;;;0.60;;
52696;SDS011;38593;52.670;6.286;2022-07-11T08:17:46;1.15;;;0.52;;
52696;SDS011;38593;52.670;6.286;2022-07-11T08:20:11;0.50;;;0.40;;
52696;SDS011;38593;52.670;6.286;2022-07-11T08:22:37;0.63;;;0.50;;
52696;SDS011;38593;52.670;6.286;2022-07-11T08:25:02;0.40;;;0.40;;
52696;SDS011;38593;52.670;6.286;2022-07-11T08:27:28;1.38;;;0.60;;
52696;SDS011;38593;52.670;6.286;2022-07-11T08:29:54;0.53;;;0.53;;
52696;SDS011;38593;52.670;6.286;2022-07-11T08:32:19;0.40;;;0.40;;
52696;SDS011;38593;52.670;6.286;2022-07-11T08:34:45;0.43;;;0.40;;
52696;SDS011;38593;52.670;6.286;2022-07-11T08:37:11;0.40;;;0.40;;
52696;SDS011;38593;52.670;6.286;2022-07-11T08:39:37;0.68;;;0.57;;
52696;SDS011;38593;52.670;6.286;2022-07-11T08:42:02;0.40;;;0.40;;
52696;SDS011;38593;52.670;6.286;2022-07-11T08:44:28;0.38;;;0.38;;
52696;SDS011;38593;52.670;6.286;2022-07-11T08:46:55;0.68;;;0.60;;
52696;SDS011;38593;52.670;6.286;2022-07-11T08:49:22;0.90;;;0.55;;
52696;SDS011;38593;52.670;6.286;2022-07-11T08:51:48;1.55;;;0.50;;
52696;SDS011;38593;52.670;6.286;2022-07-11T08:54:14;0.60;;;0.50;;
52696;SDS011;38593;52.670;6.286;2022-07-11T08:56:40;1.40;;;0.50;;
52696;SDS011;38593;52.670;6.286;2022-07-11T08:59:08;0.52;;;0.40;;
52696;SDS011;38593;52.670;6.286;2022-07-11T09:01:35;1.27;;;0.50;;
52696;SDS011;38593;52.670;6.286;2022-07-11T09:04:06;0.57;;;0.40;;
52696;SDS011;38593;52.670;6.286;2022-07-11T09:06:33;0.43;;;0.43;;
52696;SDS011;38593;52.670;6.286;2022-07-11T09:09:00;1.02;;;0.70;;
52696;SDS011;38593;52.670;6.286;2022-07-11T09:11:27;1.23;;;0.55;;
52696;SDS011;38593;52.670;6.286;2022-07-11T09:13:53;1.17;;;0.50;;
52696;SDS011;38593;52.670;6.286;2022-07-11T09:16:19;2.83;;;0.80;;
52696;SDS011;38593;52.670;6.286;2022-07-11T09:18:45;1.87;;;0.43;;
52696;SDS011;38593;52.670;6.286;2022-07-11T09:21:11;1.03;;;0.60;;
52696;SDS011;38593;52.670;6.286;2022-07-11T09:23:59;1.40;;;0.50;;
52696;SDS011;38593;52.670;6.286;2022-07-11T09:26:46;0.97;;;0.50;;
52696;SDS011;38593;52.670;6.286;2022-07-11T09:29:14;0.55;;;0.50;;
52696;SDS011;38593;52.670;6.286;2022-07-11T09:31:42;0.80;;;0.45;;
52696;SDS011;38593;52.670;6.286;2022-07-11T09:34:15;0.57;;;0.57;;
52696;SDS011;38593;52.670;6.286;2022-07-11T09:36:49;0.32;;;0.32;;
52696;SDS011;38593;52.670;6.286;2022-07-11T09:39:23;0.65;;;0.50;;
52696;SDS011;38593;52.670;6.286;2022-07-11T09:41:50;0.50;;;0.50;;
52696;SDS011;38593;52.670;6.286;2022-07-11T09:49:11;0.30;;;0.30;;
52696;SDS011;38593;52.670;6.286;2022-07-11T09:51:38;0.40;;;0.40;;
52696;SDS011;38593;52.670;6.286;2022-07-11T09:54:04;0.47;;;0.47;;
52696;SDS011;38593;52.670;6.286;2022-07-11T09:56:34;0.50;;;0.40;;
52696;SDS011;38593;52.670;6.286;2022-07-11T09:59:03;0.60;;;0.50;;
52696;SDS011;38593;52.670;6.286;2022-07-11T10:01:30;0.73;;;0.50;;
52696;SDS011;38593;52.670;6.286;2022-07-11T10:03:56;0.75;;;0.60;;
52696;SDS011;38593;52.670;6.286;2022-07-11T10:06:23;1.05;;;0.50;;
52696;SDS011;38593;52.670;6.286;2022-07-11T10:11:15;0.63;;;0.40;;
52696;SDS011;38593;52.670;6.286;2022-07-11T10:13:41;0.80;;;0.53;;
52696;SDS011;38593;52.670;6.286;2022-07-11T10:18:45;1.00;;;0.52;;
52696;SDS011;38593;52.670;6.286;2022-07-11T10:21:26;1.02;;;0.93;;
52696;SDS011;38593;52.670;6.286;2022-07-11T10:29:44;0.60;;;0.45;;
52696;SDS011;38593;52.670;6.286;2022-07-11T10:32:15;0.40;;;0.40;;
52696;SDS011;38593;52.670;6.286;2022-07-11T10:34:41;1.27;;;0.50;;
52696;SDS011;38593;52.670;6.286;2022-07-11T10:37:07;0.93;;;0.50;;
52696;SDS011;38593;52.670;6.286;2022-07-11T10:39:35;0.50;;;0.50;;
52696;SDS011;38593;52.670;6.286;2022-07-11T10:42:05;0.60;;;0.50;;
52696;SDS011;38593;52.670;6.286;2022-07-11T10:44:48;0.40;;;0.40;;
52696;SDS011;38593;52.670;6.286;2022-07-11T10:49:57;0.43;;;0.43;;
52696;SDS011;38593;52.670;6.286;2022-07-11T10:52:27;0.93;;;0.43;;
52696;SDS011;38593;52.670;6.286;2022-07-11T11:00:19;0.77;;;0.73;;
52696;SDS011;38593;52.670;6.286;2022-07-11T11:05:40;0.40;;;0.40;;
52696;SDS011;38593;52.670;6.286;2022-07-11T11:10:57;1.85;;;0.75;;
52696;SDS011;38593;52.670;6.286;2022-07-11T11:13:24;0.88;;;0.40;;
52696;SDS011;38593;52.670;6.286;2022-07-11T11:23:39;0.65;;;0.65;;
52696;SDS011;38593;52.670;6.286;2022-07-11T11:26:13;0.60;;;0.60;;
52696;SDS011;38593;52.670;6.286;2022-07-11T11:28:59;1.25;;;0.55;;
52696;SDS011;38593;52.670;6.286;2022-07-11T11:31:27;1.40;;;0.60;;
52696;SDS011;38593;52.670;6.286;2022-07-11T11:33:57;0.60;;;0.60;;
52696;SDS011;38593;52.670;6.286;2022-07-11T11:36:24;0.50;;;0.50;;
52696;SDS011;38593;52.670;6.286;2022-07-11T11:38:51;0.60;;;0.60;;
52696;SDS011;38593;52.670;6.286;2022-07-11T11:41:23;1.23;;;0.80;;
52696;SDS011;38593;52.670;6.286;2022-07-11T11:43:51;1.30;;;0.60;;
52696;SDS011;38593;52.670;6.286;2022-07-11T11:46:18;0.60;;;0.60;;
52696;SDS011;38593;52.670;6.286;2022-07-11T11:48:47;0.68;;;0.68;;
52696;SDS011;38593;52.670;6.286;2022-07-11T11:51:14;0.70;;;0.70;;
52696;SDS011;38593;52.670;6.286;2022-07-11T11:53:44;0.85;;;0.60;;
52696;SDS011;38593;52.670;6.286;2022-07-11T11:58:57;0.60;;;0.60;;
52696;SDS011;38593;52.670;6.286;2022-07-11T12:01:29;0.50;;;0.50;;
52696;SDS011;38593;52.670;6.286;2022-07-11T12:03:57;0.73;;;0.60;;
52696;SDS011;38593;52.670;6.286;2022-07-11T12:08:51;0.60;;;0.60;;
52696;SDS011;38593;52.670;6.286;2022-07-11T12:11:17;0.60;;;0.60;;
52696;SDS011;38593;52.670;6.286;2022-07-11T12:13:43;0.65;;;0.65;;
52696;SDS011;38593;52.670;6.286;2022-07-11T12:16:16;0.68;;;0.65;;
52696;SDS011;38593;52.670;6.286;2022-07-11T12:19:01;0.55;;;0.55;;
52696;SDS011;38593;52.670;6.286;2022-07-11T12:21:28;0.65;;;0.65;;
52696;SDS011;38593;52.670;6.286;2022-07-11T12:23:58;0.80;;;0.60;;
52696;SDS011;38593;52.670;6.286;2022-07-11T12:26:28;1.15;;;0.60;;
52696;SDS011;38593;52.670;6.286;2022-07-11T12:29:08;0.52;;;0.52;;
52696;SDS011;38593;52.670;6.286;2022-07-11T12:34:10;0.80;;;0.80;;
52696;SDS011;38593;52.670;6.286;2022-07-11T12:36:36;0.70;;;0.70;;
52696;SDS011;38593;52.670;6.286;2022-07-11T12:39:02;1.05;;;0.80;;
52696;SDS011;38593;52.670;6.286;2022-07-11T12:41:29;0.60;;;0.60;;
52696;SDS011;38593;52.670;6.286;2022-07-11T12:43:59;1.52;;;0.90;;
52696;SDS011;38593;52.670;6.286;2022-07-11T12:46:43;0.60;;;0.60;;
52696;SDS011;38593;52.670;6.286;2022-07-11T12:49:12;0.70;;;0.70;;
52696;SDS011;38593;52.670;6.286;2022-07-11T12:51:40;2.25;;;0.80;;
52696;SDS011;38593;52.670;6.286;2022-07-11T12:54:08;0.70;;;0.70;;
52696;SDS011;38593;52.670;6.286;2022-07-11T12:56:38;1.38;;;0.77;;
52696;SDS011;38593;52.670;6.286;2022-07-11T12:59:05;1.13;;;0.80;;
52696;SDS011;38593;52.670;6.286;2022-07-11T13:01:31;1.08;;;0.70;;
52696;SDS011;38593;52.670;6.286;2022-07-11T13:03:58;1.25;;;0.70;;
52696;SDS011;38593;52.670;6.286;2022-07-11T13:09:08;0.68;;;0.68;;
52696;SDS011;38593;52.670;6.286;2022-07-11T13:11:34;0.70;;;0.70;;
52696;SDS011;38593;52.670;6.286;2022-07-11T13:14:00;1.33;;;0.63;;
52696;SDS011;38593;52.670;6.286;2022-07-11T13:16:26;1.08;;;0.80;;
52696;SDS011;38593;52.670;6.286;2022-07-11T13:18:52;0.77;;;0.70;;
52696;SDS011;38593;52.670;6.286;2022-07-11T13:21:18;1.17;;;0.70;;
52696;SDS011;38593;52.670;6.286;2022-07-11T13:23:45;1.50;;;0.82;;
52696;SDS011;38593;52.670;6.286;2022-07-11T13:26:11;0.90;;;0.63;;
52696;SDS011;38593;52.670;6.286;2022-07-11T13:28:37;1.38;;;0.80;;
52696;SDS011;38593;52.670;6.286;2022-07-11T13:33:31;0.60;;;0.60;;
52696;SDS011;38593;52.670;6.286;2022-07-11T13:35:57;0.70;;;0.70;;
52696;SDS011;38593;52.670;6.286;2022-07-11T13:38:24;0.70;;;0.70;;
52696;SDS011;38593;52.670;6.286;2022-07-11T13:40:50;0.70;;;0.70;;
52696;SDS011;38593;52.670;6.286;2022-07-11T13:43:15;0.90;;;0.65;;
52696;SDS011;38593;52.670;6.286;2022-07-11T13:45:42;1.55;;;0.90;;
52696;SDS011;38593;52.670;6.286;2022-07-11T13:48:12;0.80;;;0.70;;
52696;SDS011;38593;52.670;6.286;2022-07-11T13:50:38;0.88;;;0.80;;
52696;SDS011;38593;52.670;6.286;2022-07-11T13:53:04;2.35;;;0.80;;
52696;SDS011;38593;52.670;6.286;2022-07-11T13:55:30;0.85;;;0.80;;
52696;SDS011;38593;52.670;6.286;2022-07-11T13:57:56;1.38;;;0.80;;
52696;SDS011;38593;52.670;6.286;2022-07-11T14:00:23;0.70;;;0.70;;
52696;SDS011;38593;52.670;6.286;2022-07-11T14:02:49;2.78;;;0.70;;
52696;SDS011;38593;52.670;6.286;2022-07-11T14:10:09;0.85;;;0.82;;
52696;SDS011;38593;52.670;6.286;2022-07-11T14:12:35;1.50;;;0.70;;
52696;SDS011;38593;52.670;6.286;2022-07-11T14:15:00;1.00;;;0.75;;
52696;SDS011;38593;52.670;6.286;2022-07-11T14:17:27;3.83;;;0.90;;
52696;SDS011;38593;52.670;6.286;2022-07-11T14:19:53;1.35;;;1.13;;
52696;SDS011;38593;52.670;6.286;2022-07-11T14:22:19;0.93;;;0.70;;
52696;SDS011;38593;52.670;6.286;2022-07-11T14:24:45;0.70;;;0.70;;
52696;SDS011;38593;52.670;6.286;2022-07-11T14:27:10;0.68;;;0.60;;
52696;SDS011;38593;52.670;6.286;2022-07-11T14:29:38;2.92;;;0.80;;
52696;SDS011;38593;52.670;6.286;2022-07-11T14:32:05;1.27;;;0.90;;
52696;SDS011;38593;52.670;6.286;2022-07-11T14:34:31;1.48;;;0.60;;
52696;SDS011;38593;52.670;6.286;2022-07-11T14:36:57;0.90;;;0.90;;
52696;SDS011;38593;52.670;6.286;2022-07-11T14:39:22;0.70;;;0.70;;
52696;SDS011;38593;52.670;6.286;2022-07-11T14:41:48;1.15;;;0.90;;
52696;SDS011;38593;52.670;6.286;2022-07-11T14:44:15;0.60;;;0.60;;
52696;SDS011;38593;52.670;6.286;2022-07-11T14:46:40;1.25;;;0.63;;
52696;SDS011;38593;52.670;6.286;2022-07-11T14:49:06;1.13;;;0.75;;
52696;SDS011;38593;52.670;6.286;2022-07-11T14:51:33;0.70;;;0.70;;
52696;SDS011;38593;52.670;6.286;2022-07-11T14:56:25;0.90;;;0.70;;
52696;SDS011;38593;52.670;6.286;2022-07-11T14:58:51;0.70;;;0.70;;
52696;SDS011;38593;52.670;6.286;2022-07-11T15:01:16;0.80;;;0.70;;
52696;SDS011;38593;52.670;6.286;2022-07-11T15:03:42;0.60;;;0.60;;
52696;SDS011;38593;52.670;6.286;2022-07-11T15:06:09;0.80;;;0.80;;
52696;SDS011;38593;52.670;6.286;2022-07-11T15:08:36;0.77;;;0.60;;
52696;SDS011;38593;52.670;6.286;2022-07-11T15:11:21;1.75;;;0.60;;
52696;SDS011;38593;52.670;6.286;2022-07-11T15:14:07;0.52;;;0.50;;
52696;SDS011;38593;52.670;6.286;2022-07-11T15:16:34;1.55;;;0.70;;
52696;SDS011;38593;52.670;6.286;2022-07-11T15:19:00;0.60;;;0.60;;
52696;SDS011;38593;52.670;6.286;2022-07-11T15:21:27;0.55;;;0.55;;
52696;SDS011;38593;52.670;6.286;2022-07-11T15:23:53;0.70;;;0.68;;
52696;SDS011;38593;52.670;6.286;2022-07-11T15:26:18;0.57;;;0.57;;
52696;SDS011;38593;52.670;6.286;2022-07-11T15:28:44;0.85;;;0.60;;
52696;SDS011;38593;52.670;6.286;2022-07-11T15:31:11;0.80;;;0.60;;
52696;SDS011;38593;52.670;6.286;2022-07-11T15:33:38;0.52;;;0.50;;
52696;SDS011;38593;52.670;6.286;2022-07-11T15:38:29;1.00;;;0.60;;
52696;SDS011;38593;52.670;6.286;2022-07-11T15:40:55;0.50;;;0.50;;
52696;SDS011;38593;52.670;6.286;2022-07-11T15:43:21;0.68;;;0.60;;
52696;SDS011;38593;52.670;6.286;2022-07-11T15:45:46;1.15;;;0.80;;
52696;SDS011;38593;52.670;6.286;2022-07-11T15:48:12;0.85;;;0.63;;
52696;SDS011;38593;52.670;6.286;2022-07-11T15:50:38;0.57;;;0.57;;
52696;SDS011;38593;52.670;6.286;2022-07-11T15:53:03;0.70;;;0.60;;
52696;SDS011;38593;52.670;6.286;2022-07-11T15:55:29;0.90;;;0.73;;
52696;SDS011;38593;52.670;6.286;2022-07-11T15:57:55;0.55;;;0.55;;